METAR Data
IDs: Format: Raw Decoded Include TAF

Data at: 1537 UTC 21 Sep 2018

KSCF 211515Z AUTO 11011KT 10SM FEW023 29/25 A3005 RMK A01
KSCF 211455Z AUTO 13012KT 10SM CLR 30/25 A3005 RMK A01
KSCF 211435Z AUTO 13014KT 10SM FEW022 FEW036 SCT042 29/24 A3005 RMK A01
KSCF 211415Z AUTO 14011KT 10SM FEW021 SCT025 SCT030 30/25 A3005 RMK A01
KSCF 211355Z AUTO 13011KT 10SM FEW021 SCT025 BKN031 30/25 A3004 RMK A01
KSCF 211335Z AUTO 14011KT 10SM SCT022 SCT026 SCT040 30/25 A3004 RMK A01
KSCF 211315Z AUTO 14011KT 10SM FEW021 30/25 A3004 RMK A01
KSCF 211255Z AUTO 15011KT 10SM FEW022 30/25 A3003 RMK A01
KSCF 211235Z AUTO 14012KT 10SM FEW022 30/25 A3003 RMK A01
KSCF 211215Z AUTO 15012KT 10SM CLR 29/25 A3002 RMK A01
KSCF 211155Z AUTO 15012KT 10SM FEW022 29/25 A3002 RMK A01
KSCF 211135Z AUTO 16011KT 10SM FEW021 29/24 A3002 RMK A01
KSCF 211115Z AUTO 15012KT 10SM BKN021 BKN027 29/25 A3001 RMK A01
KSCF 211055Z AUTO 15011KT 10SM SCT021 SCT027 29/25 A3000 RMK A01
KSCF 211035Z AUTO 16013KT 10SM SCT021 29/25 A3000 RMK A01
KSCF 211015Z AUTO 16013KT 10SM CLR 29/24 A2999 RMK A01
KSCF 210955Z AUTO 16013KT 10SM CLR 30/24 A3000 RMK A01
KSCF 210935Z AUTO 15014KT 10SM FEW022 29/24 A2999 RMK A01
KSCF 210915Z AUTO 16012KT 10SM FEW022 29/25 A2999 RMK A01
KSCF 210855Z AUTO 16013KT 10SM FEW024 29/25 A2999 RMK A01
KSCF 210835Z AUTO 16014KT 10SM FEW023 29/25 A2999 RMK A01
KSCF 210815Z AUTO 16015KT 10SM FEW022 29/24 A3000 RMK A01
KSCF 210755Z AUTO 16016KT 10SM FEW022 29/24 A3000 RMK A01
KSCF 210735Z AUTO 16015KT 10SM FEW022 FEW027 FEW041 29/24 A3000 RMK A01
KSCF 210715Z AUTO 16014G19KT 10SM SCT022 SCT027 SCT031 29/25 A3001 RMK A01
KSCF 210655Z AUTO 14014KT 10SM SCT022 BKN031 BKN042 29/25 A3001 RMK A01
KSCF 210635Z AUTO 15015KT 10SM BKN023 BKN033 OVC075 30/25 A3001 RMK A01
KSCF 210615Z AUTO 14015KT 10SM SCT024 BKN034 BKN050 30/25 A3002 RMK A01
KSCF 210555Z AUTO 15015KT 10SM SCT024 SCT037 30/25 A3002 RMK A01
KSCF 210535Z AUTO 16016KT 10SM SCT025 30/24 A3002 RMK A01
KSCF 210515Z AUTO 15015KT 10SM SCT026 30/24 A3003 RMK A01
KSCF 210455Z AUTO 15016KT 10SM FEW026 SCT032 30/24 A3003 RMK A01
KSCF 210435Z AUTO 15016KT 10SM FEW026 30/24 A3003 RMK A01
KSCF 210415Z AUTO 14014KT 10SM FEW025 SCT035 30/24 A3004 RMK A01
KSCF 210355Z AUTO 15015KT 10SM SCT025 BKN035 30/24 A3003 RMK A01
KSCF 210335Z AUTO 15017KT 10SM SCT024 30/24 A3003 RMK A01
KSCF 210315Z AUTO 15016KT 10SM FEW024 30/24 A3003 RMK A01
KSCF 210255Z AUTO 16016KT 10SM SCT024 30/24 A3002 RMK A01
KSCF 210235Z AUTO 14016KT 10SM FEW025 FEW031 SCT039 30/24 A3001 RMK A01
KSCF 210215Z AUTO 15015KT 10SM FEW025 SCT031 SCT039 30/25 A3001 RMK A01
KSCF 210155Z AUTO 14015KT 10SM SCT025 SCT030 30/24 A3000 RMK A01
KSCF 210135Z AUTO 15016KT 10SM FEW027 30/24 A2999 RMK A01
KSCF 210115Z AUTO 15016KT 10SM CLR 30/23 A2999 RMK A01
KSCF 210055Z AUTO 15015KT 10SM CLR 30/23 A2998 RMK A01
KSCF 210035Z AUTO 15015KT 10SM CLR 30/23 A2998 RMK A01
KSCF 210015Z AUTO 14014KT 10SM CLR 30/24 A2998 RMK A01
KSCF 202355Z AUTO 14013KT 10SM CLR 30/23 A2998 RMK A01
KSCF 202335Z AUTO 14013KT 10SM CLR 30/23 A2997 RMK A01
KSCF 202315Z AUTO 15014KT 10SM FEW028 30/24 A2997 RMK A01
KSCF 202255Z AUTO 15013KT 10SM CLR 30/24 A2997 RMK A01
KSCF 202235Z AUTO 15013KT 10SM FEW026 30/24 A2998 RMK A01
KSCF 202215Z AUTO 14013KT 10SM FEW024 FEW032 30/24 A2997 RMK A01
KSCF 202155Z AUTO 15013KT 10SM FEW025 30/24 A2998 RMK A01
KSCF 202135Z AUTO 15013KT 10SM CLR 30/24 A2998 RMK A01
KSCF 202115Z AUTO 15012KT 10SM CLR 31/24 A2998 RMK A01
KSCF 202055Z AUTO 15012KT 10SM CLR 30/24 A2998 RMK A01
KSCF 202035Z AUTO 15012KT 10SM CLR 30/23 A2998 RMK A01
KSCF 202015Z AUTO 14011KT 10SM CLR 31/23 A2999 RMK A01
KSCF 201955Z AUTO 15010KT 10SM CLR 30/24 A3000 RMK A01
KSCF 201935Z AUTO 14011KT 10SM FEW026 30/23 A3001 RMK A01
KSCF 201915Z AUTO 14010KT 10SM SCT027 SCT034 30/24 A3001 RMK A01
KSCF 201855Z AUTO 13009KT 10SM FEW030 FEW035 30/23 A3002 RMK A01
KSCF 201835Z AUTO 14007KT 10SM CLR 30/24 A3002 RMK A01
KSCF 201815Z AUTO 15008KT 10SM FEW025 FEW033 30/24 A3002 RMK A01
KSCF 201755Z AUTO 13006KT 10SM SCT024 SCT033 30/24 A3003 RMK A01
KSCF 201735Z AUTO 13006KT 10SM SCT025 30/24 A3003 RMK A01
KSCF 201715Z AUTO 13007KT 10SM CLR 30/24 A3004 RMK A01
KSCF 201655Z AUTO 14008KT 10SM FEW024 FEW029 30/23 A3004 RMK A01
KSCF 201635Z AUTO 13007KT 10SM SCT024 SCT031 30/24 A3005 RMK A01
KSCF 201615Z AUTO 15007KT 10SM FEW025 30/24 A3005 RMK A01
KSCF 201555Z AUTO 13006KT 10SM SCT025 SCT033 SCT039 30/24 A3005 RMK A01
KSCF 201535Z AUTO 15006KT 10SM FEW025 FEW033 FEW039 30/24 A3005 RMK A01
KSCF 201515Z AUTO 14005KT 10SM FEW027 FEW032 30/24 A3004 RMK A01
KSCF 201455Z AUTO 14006KT 10SM FEW027 FEW032 30/23 A3004 RMK A01
KSCF 201435Z AUTO 16004KT 10SM FEW027 30/24 A3004 RMK A01
KSCF 201415Z AUTO 00000KT 10SM CLR 30/23 A3003 RMK A01
KSCF 201355Z AUTO 16003KT 10SM CLR 30/23 A3002 RMK A01
KSCF 201335Z AUTO 15004KT 10SM CLR 30/23 A3002 RMK A01
KSCF 201315Z AUTO 13006KT 10SM CLR 30/23 A3001 RMK A01
KSCF 201255Z AUTO 00000KT 10SM CLR 30/23 A3000 RMK A01
KSCF 201235Z AUTO 15004KT 10SM CLR 30/23 A3001 RMK A01
KSCF 201215Z AUTO 00000KT 10SM CLR 29/23 A3000 RMK A01
KSCF 201155Z AUTO 16003KT 10SM CLR 29/23 A2999 RMK A01
KSCF 201135Z AUTO 00000KT 10SM CLR 29/23 A2999 RMK A01
KSCF 201115Z AUTO 00000KT 10SM CLR 29/23 A2998 RMK A01
KSCF 201055Z AUTO 00000KT 10SM CLR 29/23 A2998 RMK A01
KSCF 201035Z AUTO 00000KT 10SM CLR 29/23 A2998 RMK A01
KSCF 201015Z AUTO 00000KT 10SM CLR 29/23 A2998 RMK A01
KSCF 200955Z AUTO 00000KT 10SM FEW026 FEW037 29/23 A2998 RMK A01
KSCF 200935Z AUTO 00000KT 10SM SCT025 SCT037 29/24 A2997 RMK A01
KSCF 200915Z AUTO 00000KT 10SM SCT024 SCT028 29/24 A2998 RMK A01
KSCF 200855Z AUTO 00000KT 10SM SCT028 29/24 A2998 RMK A01
KSCF 200835Z AUTO 00000KT 10SM FEW027 SCT032 29/23 A2998 RMK A01
KSCF 200815Z AUTO 00000KT 10SM FEW026 FEW040 29/24 A2998 RMK A01
KSCF 200755Z AUTO 00000KT 10SM CLR 29/24 A2998 RMK A01
KSCF 200735Z AUTO 00000KT 10SM FEW027 30/23 A2998 RMK A01
KSCF 200715Z AUTO 00000KT 10SM SCT027 SCT034 30/24 A2998 RMK A01
KSCF 200655Z AUTO VRB03KT 10SM SCT028 BKN034 BKN043 30/24 A2998 RMK A01
KSCF 200635Z AUTO 00000KT 10SM BKN028 BKN035 30/24 A2998 RMK A01
KSCF 200615Z AUTO 16007KT 140V210 10SM BKN028 BKN033 30/24 A2998 RMK A01
KSCF 200555Z AUTO 00000KT 10SM SCT029 SCT033 SCT039 30/24 A2998 RMK A01
KSCF 200535Z AUTO 00000KT 10SM SCT026 BKN031 BKN041 30/24 A2998 RMK A01
KSCF 200515Z AUTO 00000KT 10SM SCT026 SCT035 SCT044 30/25 A2998 RMK A01
KSCF 200455Z AUTO 00000KT 10SM SCT025 30/25 A2998 RMK A01
KSCF 200435Z AUTO 00000KT 10SM SCT025 SCT030 30/25 A2998 RMK A01
KSCF 200415Z AUTO 00000KT 10SM FEW027 30/24 A2998 RMK A01
KSCF 200355Z AUTO VRB06KT 10SM CLR 30/24 A2998 RMK A01